West Point, MS

10:59 PM CDT on September 01, 2014 (GMT -0500)
MesoWest STARKVILLE MS US SCAN | Change Station
CLOSE
Current Station
Personal Weather Station
Location: West Point, MS
Elevation: 339 ft
Nearby Weather Stations

Elev 339 ft 33.63 °N, 88.77 °W | Updated 59 minutes ago

Clear
Clear
82 °F
Feels Like 87 °F
N
2
Wind Variable Wind from South
Gusts 0.0 mph

Today
High -- | Low -- °F
--% Chance of Precip.
Yesterday
High -- | Low -- °F
Precip. -- in
6:28 AM 7:20 PM
Waxing Crescent, 47% visible
Pressure 30.03 in
Visibility 10.0 miles
Clouds Mostly Cloudy 10000 ft
Heat Index 87 °F
Dew Point 71 °F
Humidity 71%
Rainfall -999.00 in
Snow Depth Not available.
UV 0 out of 12
Pollen 10.10 out of 12
Air Quality Not available.
Flu Activity Not available.
METAR KSTF 020355Z AUTO 00000KT 10SM BKN100 25/21 A3003 RMK AO2

More Conditions Fewer Conditions

Pressure 30.03 in
Visibility 10.0 miles
Clouds Mostly Cloudy 10000 ft
Heat Index 87 °F
Dew Point 71 °F
Humidity 71%
Rainfall -999.00 in
Snow Depth Not available.
UV 0 out of 12
Pollen 10.10 out of 12
Air Quality Not available.
Flu Activity Not available.
METAR KSTF 020355Z AUTO 00000KT 10SM BKN100 25/21 A3003 RMK AO2

More Conditions Fewer Conditions

10-Day Weather Forecast

Almanac

Astronomy

Sep. 01, 2014 Rise Set
Actual Time 6:28 AM CDT 7:20 PM CDT
Civil Twilight 6:03 AM CDT 7:45 PM CDT
Nautical Twilight 5:33 AM CDT 8:15 PM CDT
Astronomical Twilight 5:02 AM CDT 8:46 PM CDT
Moon 12:55 PM CDT (9/1) 11:41 PM CDT (9/1)
Length of Visible Light 13h 42m
Length of Day
12h 51m
Tomorrow will be 2m 1s shorter.
Waxing Crescent, 47% of the Moon is Illuminated
Today
Waxing Crescent
Sep 2
First Quarter
Sep 8
Full
Sep 15
Last Quarter
Sep 24
New

Today's Extremes

State Highs State Lows

Community

WunderPhotos

Upload Photos

1,749,557 photos uploaded!

WunderBlogs® & News

Nearby

Snow Depth

Station Depth Elevation
No new snow has been reported.

Earthquake Activity

City Distance Mag. Time & Date
No recent earthquake activity has been reported nearby.
Minimum magnitude displayed is 2.5.

Coastal Water Temperatures

Place Temperature
No Stations Reporting

Nearby Weather Stations